sensor_id;sensor_type;location;lat;lon;timestamp;temperature;humidity
14527;DHT22;7350;51.208;4.238;2022-07-29T00:02:05;19.90;99.90
14527;DHT22;7350;51.208;4.238;2022-07-29T00:04:34;19.80;99.90
14527;DHT22;7350;51.208;4.238;2022-07-29T00:07:03;20.00;99.90
14527;DHT22;7350;51.208;4.238;2022-07-29T00:09:30;19.90;99.90
14527;DHT22;7350;51.208;4.238;2022-07-29T00:11:59;19.80;99.90
14527;DHT22;7350;51.208;4.238;2022-07-29T00:14:27;19.90;99.90
14527;DHT22;7350;51.208;4.238;2022-07-29T00:16:55;20.00;99.90
14527;DHT22;7350;51.208;4.238;2022-07-29T00:19:22;20.00;99.90
14527;DHT22;7350;51.208;4.238;2022-07-29T00:21:49;20.10;99.90
14527;DHT22;7350;51.208;4.238;2022-07-29T00:24:17;20.00;99.90
14527;DHT22;7350;51.208;4.238;2022-07-29T00:26:44;19.80;99.90
14527;DHT22;7350;51.208;4.238;2022-07-29T00:29:11;19.60;99.90
14527;DHT22;7350;51.208;4.238;2022-07-29T00:31:38;19.40;99.90
14527;DHT22;7350;51.208;4.238;2022-07-29T00:34:07;19.30;99.90
14527;DHT22;7350;51.208;4.238;2022-07-29T00:36:55;19.20;99.90
14527;DHT22;7350;51.208;4.238;2022-07-29T00:39:22;19.20;99.90
14527;DHT22;7350;51.208;4.238;2022-07-29T00:41:49;19.30;99.90
14527;DHT22;7350;51.208;4.238;2022-07-29T00:44:16;19.30;99.90
14527;DHT22;7350;51.208;4.238;2022-07-29T00:46:43;19.30;99.90
14527;DHT22;7350;51.208;4.238;2022-07-29T00:49:10;19.10;99.90
14527;DHT22;7350;51.208;4.238;2022-07-29T00:51:38;19.00;99.90
14527;DHT22;7350;51.208;4.238;2022-07-29T00:54:05;18.90;99.90
14527;DHT22;7350;51.208;4.238;2022-07-29T00:56:34;19.00;99.90
14527;DHT22;7350;51.208;4.238;2022-07-29T00:59:01;19.10;99.90
14527;DHT22;7350;51.208;4.238;2022-07-29T01:01:28;19.10;99.90
14527;DHT22;7350;51.208;4.238;2022-07-29T01:03:55;19.10;99.90
14527;DHT22;7350;51.208;4.238;2022-07-29T01:06:22;19.10;99.90
14527;DHT22;7350;51.208;4.238;2022-07-29T01:08:50;19.30;99.90
14527;DHT22;7350;51.208;4.238;2022-07-29T01:11:18;19.20;99.90
14527;DHT22;7350;51.208;4.238;2022-07-29T01:13:47;19.10;99.90
14527;DHT22;7350;51.208;4.238;2022-07-29T01:16:21;19.10;99.90
14527;DHT22;7350;51.208;4.238;2022-07-29T01:18:51;19.10;99.90
14527;DHT22;7350;51.208;4.238;2022-07-29T01:21:44;19.20;99.90
14527;DHT22;7350;51.208;4.238;2022-07-29T01:24:34;19.30;99.90
14527;DHT22;7350;51.208;4.238;2022-07-29T01:27:16;19.30;99.90
14527;DHT22;7350;51.208;4.238;2022-07-29T01:29:55;19.50;99.90
14527;DHT22;7350;51.208;4.238;2022-07-29T01:32:26;19.50;99.90
14527;DHT22;7350;51.208;4.238;2022-07-29T01:34:56;19.40;99.90
14527;DHT22;7350;51.208;4.238;2022-07-29T01:37:27;19.40;99.90
14527;DHT22;7350;51.208;4.238;2022-07-29T01:39:57;19.40;99.90
14527;DHT22;7350;51.208;4.238;2022-07-29T01:42:29;19.20;99.90
14527;DHT22;7350;51.208;4.238;2022-07-29T01:45:03;18.90;99.90
14527;DHT22;7350;51.208;4.238;2022-07-29T01:47:37;18.90;99.90
14527;DHT22;7350;51.208;4.238;2022-07-29T01:50:13;19.10;99.90
14527;DHT22;7350;51.208;4.238;2022-07-29T01:52:46;19.20;99.90
14527;DHT22;7350;51.208;4.238;2022-07-29T01:55:17;19.30;99.90
14527;DHT22;7350;51.208;4.238;2022-07-29T01:57:48;19.20;99.90
14527;DHT22;7350;51.208;4.238;2022-07-29T02:00:17;19.10;99.90
14527;DHT22;7350;51.208;4.238;2022-07-29T02:02:46;18.90;99.90
14527;DHT22;7350;51.208;4.238;2022-07-29T02:05:15;18.90;99.90
14527;DHT22;7350;51.208;4.238;2022-07-29T02:07:44;19.00;99.90
14527;DHT22;7350;51.208;4.238;2022-07-29T02:10:14;19.10;99.90
14527;DHT22;7350;51.208;4.238;2022-07-29T02:12:43;19.10;99.90
14527;DHT22;7350;51.208;4.238;2022-07-29T02:15:11;19.00;99.90
14527;DHT22;7350;51.208;4.238;2022-07-29T02:17:43;19.00;99.90
14527;DHT22;7350;51.208;4.238;2022-07-29T02:20:12;18.80;99.90
14527;DHT22;7350;51.208;4.238;2022-07-29T02:22:40;19.00;99.90
14527;DHT22;7350;51.208;4.238;2022-07-29T02:25:09;18.90;99.90
14527;DHT22;7350;51.208;4.238;2022-07-29T02:27:37;18.90;99.90
14527;DHT22;7350;51.208;4.238;2022-07-29T02:30:07;18.80;99.90
14527;DHT22;7350;51.208;4.238;2022-07-29T02:32:37;18.60;99.90
14527;DHT22;7350;51.208;4.238;2022-07-29T02:35:09;18.60;99.90
14527;DHT22;7350;51.208;4.238;2022-07-29T02:37:36;18.60;99.90
14527;DHT22;7350;51.208;4.238;2022-07-29T02:40:07;18.80;99.90
14527;DHT22;7350;51.208;4.238;2022-07-29T02:42:36;18.80;99.90
14527;DHT22;7350;51.208;4.238;2022-07-29T02:45:05;18.60;99.90
14527;DHT22;7350;51.208;4.238;2022-07-29T02:47:36;18.60;99.90
14527;DHT22;7350;51.208;4.238;2022-07-29T02:50:09;18.60;99.90
14527;DHT22;7350;51.208;4.238;2022-07-29T02:52:41;18.50;99.90
14527;DHT22;7350;51.208;4.238;2022-07-29T02:55:14;18.40;99.90
14527;DHT22;7350;51.208;4.238;2022-07-29T02:57:44;18.60;99.90
14527;DHT22;7350;51.208;4.238;2022-07-29T03:00:14;18.50;99.90
14527;DHT22;7350;51.208;4.238;2022-07-29T03:02:44;18.30;99.90
14527;DHT22;7350;51.208;4.238;2022-07-29T03:05:17;18.30;99.90
14527;DHT22;7350;51.208;4.238;2022-07-29T03:07:47;18.50;99.90
14527;DHT22;7350;51.208;4.238;2022-07-29T03:10:15;18.50;99.90
14527;DHT22;7350;51.208;4.238;2022-07-29T03:12:42;18.40;99.90
14527;DHT22;7350;51.208;4.238;2022-07-29T03:15:11;18.50;99.90
14527;DHT22;7350;51.208;4.238;2022-07-29T03:17:38;18.30;99.90
14527;DHT22;7350;51.208;4.238;2022-07-29T03:20:07;18.20;99.90
14527;DHT22;7350;51.208;4.238;2022-07-29T03:22:40;18.20;99.90
14527;DHT22;7350;51.208;4.238;2022-07-29T03:25:09;18.30;99.90
14527;DHT22;7350;51.208;4.238;2022-07-29T03:27:36;18.20;99.90
14527;DHT22;7350;51.208;4.238;2022-07-29T03:30:04;18.20;99.90
14527;DHT22;7350;51.208;4.238;2022-07-29T03:32:31;18.50;99.90
14527;DHT22;7350;51.208;4.238;2022-07-29T03:34:59;18.40;99.90
14527;DHT22;7350;51.208;4.238;2022-07-29T03:37:26;18.40;99.90
14527;DHT22;7350;51.208;4.238;2022-07-29T03:39:55;18.20;99.90
14527;DHT22;7350;51.208;4.238;2022-07-29T03:42:25;18.20;99.90
14527;DHT22;7350;51.208;4.238;2022-07-29T03:44:54;18.10;99.90
14527;DHT22;7350;51.208;4.238;2022-07-29T03:47:25;18.20;99.90
14527;DHT22;7350;51.208;4.238;2022-07-29T03:49:56;18.30;99.90
14527;DHT22;7350;51.208;4.238;2022-07-29T03:52:24;18.40;99.90
14527;DHT22;7350;51.208;4.238;2022-07-29T03:54:53;18.40;99.90
14527;DHT22;7350;51.208;4.238;2022-07-29T03:57:23;18.50;99.90
14527;DHT22;7350;51.208;4.238;2022-07-29T03:59:51;18.60;99.90
14527;DHT22;7350;51.208;4.238;2022-07-29T04:02:19;18.30;99.90
14527;DHT22;7350;51.208;4.238;2022-07-29T04:04:46;18.10;99.90
14527;DHT22;7350;51.208;4.238;2022-07-29T04:07:14;18.10;99.90
14527;DHT22;7350;51.208;4.238;2022-07-29T04:09:42;18.00;99.90
14527;DHT22;7350;51.208;4.238;2022-07-29T04:12:10;17.80;99.90
14527;DHT22;7350;51.208;4.238;2022-07-29T04:14:37;17.90;99.90
14527;DHT22;7350;51.208;4.238;2022-07-29T04:17:04;17.90;99.90
14527;DHT22;7350;51.208;4.238;2022-07-29T04:19:32;17.90;99.90
14527;DHT22;7350;51.208;4.238;2022-07-29T04:21:59;17.90;99.90
14527;DHT22;7350;51.208;4.238;2022-07-29T04:24:27;17.80;99.90
14527;DHT22;7350;51.208;4.238;2022-07-29T04:26:54;17.90;99.90
14527;DHT22;7350;51.208;4.238;2022-07-29T04:29:22;17.70;99.90
14527;DHT22;7350;51.208;4.238;2022-07-29T04:31:49;17.80;99.90
14527;DHT22;7350;51.208;4.238;2022-07-29T04:34:16;17.70;99.90
14527;DHT22;7350;51.208;4.238;2022-07-29T04:36:43;17.80;99.90
14527;DHT22;7350;51.208;4.238;2022-07-29T04:39:10;17.90;99.90
14527;DHT22;7350;51.208;4.238;2022-07-29T04:41:37;17.90;99.90
14527;DHT22;7350;51.208;4.238;2022-07-29T04:44:04;17.80;99.90
14527;DHT22;7350;51.208;4.238;2022-07-29T04:46:33;17.70;99.90
14527;DHT22;7350;51.208;4.238;2022-07-29T04:49:00;17.50;99.90
14527;DHT22;7350;51.208;4.238;2022-07-29T04:51:27;17.40;99.90
14527;DHT22;7350;51.208;4.238;2022-07-29T04:53:54;17.50;99.90
14527;DHT22;7350;51.208;4.238;2022-07-29T04:56:21;17.60;99.90
14527;DHT22;7350;51.208;4.238;2022-07-29T04:58:48;17.60;99.90
14527;DHT22;7350;51.208;4.238;2022-07-29T05:01:15;17.50;99.90
14527;DHT22;7350;51.208;4.238;2022-07-29T05:03:43;17.60;99.90
14527;DHT22;7350;51.208;4.238;2022-07-29T05:06:10;17.50;99.90
14527;DHT22;7350;51.208;4.238;2022-07-29T05:08:38;17.50;99.90
14527;DHT22;7350;51.208;4.238;2022-07-29T05:11:04;17.50;99.90
14527;DHT22;7350;51.208;4.238;2022-07-29T05:13:31;17.60;99.90
14527;DHT22;7350;51.208;4.238;2022-07-29T05:15:59;17.60;99.90
14527;DHT22;7350;51.208;4.238;2022-07-29T05:18:26;17.40;99.90
14527;DHT22;7350;51.208;4.238;2022-07-29T05:20:55;17.40;99.90
14527;DHT22;7350;51.208;4.238;2022-07-29T05:23:22;17.30;99.90
14527;DHT22;7350;51.208;4.238;2022-07-29T05:25:49;17.40;99.90
14527;DHT22;7350;51.208;4.238;2022-07-29T05:28:16;17.40;99.90
14527;DHT22;7350;51.208;4.238;2022-07-29T05:30:43;17.50;99.90
14527;DHT22;7350;51.208;4.238;2022-07-29T05:33:11;17.60;99.90
14527;DHT22;7350;51.208;4.238;2022-07-29T05:35:38;17.70;99.90
14527;DHT22;7350;51.208;4.238;2022-07-29T05:38:06;17.70;99.90
14527;DHT22;7350;51.208;4.238;2022-07-29T05:40:33;17.80;99.90
14527;DHT22;7350;51.208;4.238;2022-07-29T05:43:00;17.90;99.90
14527;DHT22;7350;51.208;4.238;2022-07-29T05:45:27;17.90;99.90
14527;DHT22;7350;51.208;4.238;2022-07-29T05:47:54;18.10;99.90
14527;DHT22;7350;51.208;4.238;2022-07-29T05:50:21;18.20;99.90
14527;DHT22;7350;51.208;4.238;2022-07-29T05:52:48;18.40;99.90
14527;DHT22;7350;51.208;4.238;2022-07-29T05:55:16;18.10;99.90
14527;DHT22;7350;51.208;4.238;2022-07-29T05:57:43;18.10;99.90
14527;DHT22;7350;51.208;4.238;2022-07-29T06:00:12;18.30;99.90
14527;DHT22;7350;51.208;4.238;2022-07-29T06:02:39;18.40;99.90
14527;DHT22;7350;51.208;4.238;2022-07-29T06:05:06;18.60;99.90
14527;DHT22;7350;51.208;4.238;2022-07-29T06:07:34;18.80;99.90
14527;DHT22;7350;51.208;4.238;2022-07-29T06:10:01;18.80;99.90
14527;DHT22;7350;51.208;4.238;2022-07-29T06:12:29;18.60;99.90
14527;DHT22;7350;51.208;4.238;2022-07-29T06:14:56;18.60;99.90
14527;DHT22;7350;51.208;4.238;2022-07-29T06:17:23;18.60;99.90
14527;DHT22;7350;51.208;4.238;2022-07-29T06:19:50;18.50;99.90
14527;DHT22;7350;51.208;4.238;2022-07-29T06:22:17;18.60;99.90
14527;DHT22;7350;51.208;4.238;2022-07-29T06:24:44;18.60;99.90
14527;DHT22;7350;51.208;4.238;2022-07-29T06:27:12;18.50;99.90
14527;DHT22;7350;51.208;4.238;2022-07-29T06:29:40;18.60;99.90
14527;DHT22;7350;51.208;4.238;2022-07-29T06:32:07;18.60;99.90
14527;DHT22;7350;51.208;4.238;2022-07-29T06:34:34;18.90;99.90
14527;DHT22;7350;51.208;4.238;2022-07-29T06:37:06;18.90;99.90
14527;DHT22;7350;51.208;4.238;2022-07-29T06:39:34;19.10;99.90
14527;DHT22;7350;51.208;4.238;2022-07-29T06:42:01;19.50;99.90
14527;DHT22;7350;51.208;4.238;2022-07-29T06:44:28;19.60;99.90
14527;DHT22;7350;51.208;4.238;2022-07-29T06:46:56;19.40;99.90
14527;DHT22;7350;51.208;4.238;2022-07-29T06:49:23;19.30;99.90
14527;DHT22;7350;51.208;4.238;2022-07-29T06:51:51;19.30;99.90
14527;DHT22;7350;51.208;4.238;2022-07-29T06:54:18;19.50;99.90
14527;DHT22;7350;51.208;4.238;2022-07-29T06:56:45;19.60;99.90
14527;DHT22;7350;51.208;4.238;2022-07-29T06:59:13;19.90;99.90
14527;DHT22;7350;51.208;4.238;2022-07-29T07:01:42;20.20;99.90
14527;DHT22;7350;51.208;4.238;2022-07-29T07:04:11;20.00;99.90
14527;DHT22;7350;51.208;4.238;2022-07-29T07:06:38;19.80;99.90
14527;DHT22;7350;51.208;4.238;2022-07-29T07:09:06;20.00;99.90
14527;DHT22;7350;51.208;4.238;2022-07-29T07:11:33;20.10;99.90
14527;DHT22;7350;51.208;4.238;2022-07-29T07:14:00;20.10;99.90
14527;DHT22;7350;51.208;4.238;2022-07-29T07:16:27;20.10;99.90
14527;DHT22;7350;51.208;4.238;2022-07-29T07:18:54;20.10;99.90
14527;DHT22;7350;51.208;4.238;2022-07-29T07:21:22;20.20;99.90
14527;DHT22;7350;51.208;4.238;2022-07-29T07:23:49;20.10;99.90
14527;DHT22;7350;51.208;4.238;2022-07-29T07:26:16;20.30;99.90
14527;DHT22;7350;51.208;4.238;2022-07-29T07:28:43;20.10;99.90
14527;DHT22;7350;51.208;4.238;2022-07-29T07:31:10;20.40;99.90
14527;DHT22;7350;51.208;4.238;2022-07-29T07:33:37;20.80;99.90
14527;DHT22;7350;51.208;4.238;2022-07-29T07:36:04;21.00;99.90
14527;DHT22;7350;51.208;4.238;2022-07-29T07:38:33;21.50;99.90
14527;DHT22;7350;51.208;4.238;2022-07-29T07:41:00;21.20;99.90
14527;DHT22;7350;51.208;4.238;2022-07-29T07:43:27;20.60;99.90
14527;DHT22;7350;51.208;4.238;2022-07-29T07:45:54;20.80;99.90
14527;DHT22;7350;51.208;4.238;2022-07-29T07:48:21;21.10;99.90
14527;DHT22;7350;51.208;4.238;2022-07-29T07:50:48;21.10;99.90
14527;DHT22;7350;51.208;4.238;2022-07-29T07:53:16;21.10;99.90
14527;DHT22;7350;51.208;4.238;2022-07-29T07:55:44;21.30;99.90
14527;DHT22;7350;51.208;4.238;2022-07-29T07:58:11;21.50;99.90
14527;DHT22;7350;51.208;4.238;2022-07-29T08:00:38;21.70;99.90
14527;DHT22;7350;51.208;4.238;2022-07-29T08:03:05;21.70;99.90
14527;DHT22;7350;51.208;4.238;2022-07-29T08:05:32;21.70;99.90
14527;DHT22;7350;51.208;4.238;2022-07-29T08:07:59;21.90;99.90
14527;DHT22;7350;51.208;4.238;2022-07-29T08:10:26;22.00;99.90
14527;DHT22;7350;51.208;4.238;2022-07-29T08:13:12;22.10;99.90
14527;DHT22;7350;51.208;4.238;2022-07-29T08:15:39;22.50;99.90
14527;DHT22;7350;51.208;4.238;2022-07-29T08:18:08;22.50;99.90
14527;DHT22;7350;51.208;4.238;2022-07-29T08:20:36;22.40;99.90
14527;DHT22;7350;51.208;4.238;2022-07-29T08:23:04;22.60;99.90
14527;DHT22;7350;51.208;4.238;2022-07-29T08:25:32;22.10;99.90
14527;DHT22;7350;51.208;4.238;2022-07-29T08:27:59;22.20;99.90
14527;DHT22;7350;51.208;4.238;2022-07-29T08:30:27;22.40;99.90
14527;DHT22;7350;51.208;4.238;2022-07-29T08:32:54;22.40;99.90
14527;DHT22;7350;51.208;4.238;2022-07-29T08:35:23;22.20;99.90
14527;DHT22;7350;51.208;4.238;2022-07-29T08:37:51;22.40;99.90
14527;DHT22;7350;51.208;4.238;2022-07-29T08:40:18;22.30;99.90
14527;DHT22;7350;51.208;4.238;2022-07-29T08:42:46;22.30;99.90
14527;DHT22;7350;51.208;4.238;2022-07-29T08:45:13;22.50;99.90
14527;DHT22;7350;51.208;4.238;2022-07-29T08:47:44;22.40;99.90
14527;DHT22;7350;51.208;4.238;2022-07-29T08:50:11;22.20;99.90
14527;DHT22;7350;51.208;4.238;2022-07-29T08:52:40;22.20;99.90
14527;DHT22;7350;51.208;4.238;2022-07-29T08:55:09;22.50;99.90
14527;DHT22;7350;51.208;4.238;2022-07-29T08:57:38;22.20;99.90
14527;DHT22;7350;51.208;4.238;2022-07-29T09:00:07;22.00;99.90
14527;DHT22;7350;51.208;4.238;2022-07-29T09:02:39;21.90;99.90
14527;DHT22;7350;51.208;4.238;2022-07-29T09:05:09;21.80;99.90
14527;DHT22;7350;51.208;4.238;2022-07-29T09:07:36;21.90;99.90
14527;DHT22;7350;51.208;4.238;2022-07-29T09:10:06;22.00;99.90
14527;DHT22;7350;51.208;4.238;2022-07-29T09:12:33;21.90;99.90
14527;DHT22;7350;51.208;4.238;2022-07-29T09:15:00;22.00;99.90
14527;DHT22;7350;51.208;4.238;2022-07-29T09:17:40;22.40;99.90
14527;DHT22;7350;51.208;4.238;2022-07-29T09:20:14;22.60;99.90
14527;DHT22;7350;51.208;4.238;2022-07-29T09:22:41;22.50;99.90
14527;DHT22;7350;51.208;4.238;2022-07-29T09:25:07;22.40;99.90
14527;DHT22;7350;51.208;4.238;2022-07-29T09:27:34;22.40;99.90
14527;DHT22;7350;51.208;4.238;2022-07-29T09:30:04;22.60;99.90
14527;DHT22;7350;51.208;4.238;2022-07-29T09:32:32;22.80;99.90
14527;DHT22;7350;51.208;4.238;2022-07-29T09:35:18;22.90;99.90
14527;DHT22;7350;51.208;4.238;2022-07-29T09:37:45;22.90;99.90
14527;DHT22;7350;51.208;4.238;2022-07-29T09:40:14;22.90;99.90
14527;DHT22;7350;51.208;4.238;2022-07-29T09:42:42;22.80;99.90
14527;DHT22;7350;51.208;4.238;2022-07-29T09:45:10;23.00;99.90
14527;DHT22;7350;51.208;4.238;2022-07-29T09:47:42;23.00;99.90
14527;DHT22;7350;51.208;4.238;2022-07-29T09:50:11;23.40;99.90
14527;DHT22;7350;51.208;4.238;2022-07-29T09:52:47;23.50;99.90
14527;DHT22;7350;51.208;4.238;2022-07-29T09:55:14;23.60;99.90
14527;DHT22;7350;51.208;4.238;2022-07-29T09:57:41;23.70;99.90
14527;DHT22;7350;51.208;4.238;2022-07-29T10:00:11;23.60;99.90
14527;DHT22;7350;51.208;4.238;2022-07-29T10:02:40;23.30;99.90
14527;DHT22;7350;51.208;4.238;2022-07-29T10:05:17;23.50;99.90
14527;DHT22;7350;51.208;4.238;2022-07-29T10:07:47;23.70;99.90
14527;DHT22;7350;51.208;4.238;2022-07-29T10:10:24;23.50;99.90
14527;DHT22;7350;51.208;4.238;2022-07-29T10:12:54;23.50;99.90
14527;DHT22;7350;51.208;4.238;2022-07-29T10:15:22;23.60;99.90
14527;DHT22;7350;51.208;4.238;2022-07-29T10:17:50;23.40;99.90
14527;DHT22;7350;51.208;4.238;2022-07-29T10:20:18;23.50;99.90
14527;DHT22;7350;51.208;4.238;2022-07-29T10:22:46;23.70;99.90
14527;DHT22;7350;51.208;4.238;2022-07-29T10:25:14;23.70;99.90
14527;DHT22;7350;51.208;4.238;2022-07-29T10:27:42;24.00;99.90
14527;DHT22;7350;51.208;4.238;2022-07-29T10:30:10;24.00;99.90
14527;DHT22;7350;51.208;4.238;2022-07-29T10:35:45;23.80;99.90
14527;DHT22;7350;51.208;4.238;2022-07-29T10:41:23;24.10;99.90
14527;DHT22;7350;51.208;4.238;2022-07-29T10:44:01;24.30;99.90
14527;DHT22;7350;51.208;4.238;2022-07-29T10:46:28;23.80;99.90
14527;DHT22;7350;51.208;4.238;2022-07-29T10:49:08;23.70;99.90
14527;DHT22;7350;51.208;4.238;2022-07-29T10:52:00;23.60;99.90
14527;DHT22;7350;51.208;4.238;2022-07-29T10:54:43;23.90;99.90
14527;DHT22;7350;51.208;4.238;2022-07-29T10:57:21;24.30;99.90
14527;DHT22;7350;51.208;4.238;2022-07-29T11:02:44;24.70;99.90
14527;DHT22;7350;51.208;4.238;2022-07-29T11:05:17;24.70;99.90
14527;DHT22;7350;51.208;4.238;2022-07-29T11:08:22;24.50;99.90
14527;DHT22;7350;51.208;4.238;2022-07-29T11:10:52;24.60;99.90
14527;DHT22;7350;51.208;4.238;2022-07-29T11:13:46;24.80;99.90
14527;DHT22;7350;51.208;4.238;2022-07-29T11:16:14;25.00;99.90
14527;DHT22;7350;51.208;4.238;2022-07-29T11:21:45;25.10;99.90
14527;DHT22;7350;51.208;4.238;2022-07-29T11:24:16;25.10;99.90
14527;DHT22;7350;51.208;4.238;2022-07-29T11:26:43;25.10;99.90
14527;DHT22;7350;51.208;4.238;2022-07-29T11:29:19;25.00;99.90
14527;DHT22;7350;51.208;4.238;2022-07-29T11:31:49;25.00;99.90
14527;DHT22;7350;51.208;4.238;2022-07-29T11:34:24;24.90;99.90
14527;DHT22;7350;51.208;4.238;2022-07-29T11:37:16;24.80;99.90
14527;DHT22;7350;51.208;4.238;2022-07-29T11:39:45;24.60;99.90
14527;DHT22;7350;51.208;4.238;2022-07-29T11:42:37;24.50;99.90
14527;DHT22;7350;51.208;4.238;2022-07-29T11:45:09;24.70;99.90
14527;DHT22;7350;51.208;4.238;2022-07-29T11:47:38;24.80;99.90
14527;DHT22;7350;51.208;4.238;2022-07-29T11:50:07;24.80;99.90
14527;DHT22;7350;51.208;4.238;2022-07-29T11:52:35;24.70;99.90
14527;DHT22;7350;51.208;4.238;2022-07-29T11:55:09;24.80;99.90
14527;DHT22;7350;51.208;4.238;2022-07-29T11:57:44;24.90;99.90
14527;DHT22;7350;51.208;4.238;2022-07-29T12:00:21;24.90;99.90
14527;DHT22;7350;51.208;4.238;2022-07-29T12:02:49;24.80;99.90
14527;DHT22;7350;51.208;4.238;2022-07-29T12:05:17;25.10;99.90
14527;DHT22;7350;51.208;4.238;2022-07-29T12:07:44;24.90;99.90
14527;DHT22;7350;51.208;4.238;2022-07-29T12:10:12;24.70;99.90
14527;DHT22;7350;51.208;4.238;2022-07-29T12:12:39;24.90;99.90
14527;DHT22;7350;51.208;4.238;2022-07-29T12:15:15;25.20;99.90
14527;DHT22;7350;51.208;4.238;2022-07-29T12:17:44;25.30;99.90
14527;DHT22;7350;51.208;4.238;2022-07-29T12:20:11;25.10;99.90
14527;DHT22;7350;51.208;4.238;2022-07-29T12:22:39;24.90;99.90
14527;DHT22;7350;51.208;4.238;2022-07-29T12:25:11;25.10;99.90
14527;DHT22;7350;51.208;4.238;2022-07-29T12:27:41;25.20;99.90
14527;DHT22;7350;51.208;4.238;2022-07-29T12:30:10;25.20;99.90
14527;DHT22;7350;51.208;4.238;2022-07-29T12:32:40;25.30;99.90
14527;DHT22;7350;51.208;4.238;2022-07-29T12:35:09;25.30;99.90
14527;DHT22;7350;51.208;4.238;2022-07-29T12:37:38;25.30;99.90
14527;DHT22;7350;51.208;4.238;2022-07-29T12:40:07;25.50;99.90
14527;DHT22;7350;51.208;4.238;2022-07-29T12:42:34;25.60;99.90
14527;DHT22;7350;51.208;4.238;2022-07-29T12:45:04;25.40;99.90
14527;DHT22;7350;51.208;4.238;2022-07-29T12:47:31;25.30;99.90
14527;DHT22;7350;51.208;4.238;2022-07-29T12:50:10;25.50;99.90
14527;DHT22;7350;51.208;4.238;2022-07-29T12:52:37;25.50;99.90
14527;DHT22;7350;51.208;4.238;2022-07-29T12:55:05;25.70;99.90
14527;DHT22;7350;51.208;4.238;2022-07-29T12:57:35;25.90;99.90
14527;DHT22;7350;51.208;4.238;2022-07-29T13:00:12;25.80;99.90
14527;DHT22;7350;51.208;4.238;2022-07-29T13:02:40;25.90;99.90
14527;DHT22;7350;51.208;4.238;2022-07-29T13:05:10;26.00;99.90
14527;DHT22;7350;51.208;4.238;2022-07-29T13:07:38;26.20;99.90
14527;DHT22;7350;51.208;4.238;2022-07-29T13:10:14;26.00;99.90
14527;DHT22;7350;51.208;4.238;2022-07-29T13:13:03;25.90;99.90
14527;DHT22;7350;51.208;4.238;2022-07-29T13:15:30;25.50;99.90
14527;DHT22;7350;51.208;4.238;2022-07-29T13:17:58;25.50;99.90
14527;DHT22;7350;51.208;4.238;2022-07-29T13:20:28;25.60;99.90
14527;DHT22;7350;51.208;4.238;2022-07-29T13:22:57;25.60;99.90
14527;DHT22;7350;51.208;4.238;2022-07-29T13:25:25;25.60;99.90
14527;DHT22;7350;51.208;4.238;2022-07-29T13:27:53;25.50;99.90
14527;DHT22;7350;51.208;4.238;2022-07-29T13:30:21;25.60;99.90
14527;DHT22;7350;51.208;4.238;2022-07-29T13:32:49;25.60;99.90
14527;DHT22;7350;51.208;4.238;2022-07-29T13:35:16;25.40;99.90
14527;DHT22;7350;51.208;4.238;2022-07-29T13:37:45;25.40;99.90
14527;DHT22;7350;51.208;4.238;2022-07-29T13:40:12;25.60;99.90
14527;DHT22;7350;51.208;4.238;2022-07-29T13:42:39;25.50;99.90
14527;DHT22;7350;51.208;4.238;2022-07-29T13:45:07;25.50;99.90
14527;DHT22;7350;51.208;4.238;2022-07-29T13:47:35;25.30;99.90
14527;DHT22;7350;51.208;4.238;2022-07-29T13:50:03;25.40;99.90
14527;DHT22;7350;51.208;4.238;2022-07-29T13:52:30;25.80;99.90
14527;DHT22;7350;51.208;4.238;2022-07-29T13:54:59;25.70;99.90
14527;DHT22;7350;51.208;4.238;2022-07-29T13:57:27;25.90;99.90
14527;DHT22;7350;51.208;4.238;2022-07-29T13:59:55;25.70;99.90
14527;DHT22;7350;51.208;4.238;2022-07-29T14:02:22;25.40;99.90
14527;DHT22;7350;51.208;4.238;2022-07-29T14:04:49;25.20;99.90
14527;DHT22;7350;51.208;4.238;2022-07-29T14:07:17;25.10;99.90
14527;DHT22;7350;51.208;4.238;2022-07-29T14:09:44;25.00;99.90
14527;DHT22;7350;51.208;4.238;2022-07-29T14:12:13;25.20;99.90
14527;DHT22;7350;51.208;4.238;2022-07-29T14:14:40;25.20;99.90
14527;DHT22;7350;51.208;4.238;2022-07-29T14:17:07;25.40;99.90
14527;DHT22;7350;51.208;4.238;2022-07-29T14:19:35;25.60;99.90
14527;DHT22;7350;51.208;4.238;2022-07-29T14:22:03;25.60;99.90
14527;DHT22;7350;51.208;4.238;2022-07-29T14:24:31;25.50;99.90
14527;DHT22;7350;51.208;4.238;2022-07-29T14:26:58;25.70;99.90
14527;DHT22;7350;51.208;4.238;2022-07-29T14:29:27;25.80;99.90
14527;DHT22;7350;51.208;4.238;2022-07-29T14:31:54;26.00;99.90
14527;DHT22;7350;51.208;4.238;2022-07-29T14:34:21;26.20;99.90
14527;DHT22;7350;51.208;4.238;2022-07-29T14:36:48;26.10;99.90
14527;DHT22;7350;51.208;4.238;2022-07-29T14:39:15;25.90;99.90
14527;DHT22;7350;51.208;4.238;2022-07-29T14:41:42;25.80;99.90
14527;DHT22;7350;51.208;4.238;2022-07-29T14:44:09;25.80;99.90
14527;DHT22;7350;51.208;4.238;2022-07-29T14:46:38;25.60;99.90
14527;DHT22;7350;51.208;4.238;2022-07-29T14:49:05;25.50;99.90
14527;DHT22;7350;51.208;4.238;2022-07-29T14:51:32;25.50;99.90
14527;DHT22;7350;51.208;4.238;2022-07-29T14:53:59;25.80;99.90
14527;DHT22;7350;51.208;4.238;2022-07-29T14:56:26;26.10;99.90
14527;DHT22;7350;51.208;4.238;2022-07-29T14:58:55;25.80;99.90
14527;DHT22;7350;51.208;4.238;2022-07-29T15:01:23;25.50;99.90
14527;DHT22;7350;51.208;4.238;2022-07-29T15:03:51;25.70;99.90
14527;DHT22;7350;51.208;4.238;2022-07-29T15:06:18;25.80;99.90
14527;DHT22;7350;51.208;4.238;2022-07-29T15:08:45;26.00;99.90
14527;DHT22;7350;51.208;4.238;2022-07-29T15:11:12;26.00;99.90
14527;DHT22;7350;51.208;4.238;2022-07-29T15:13:39;25.80;99.90
14527;DHT22;7350;51.208;4.238;2022-07-29T15:16:06;25.70;99.90
14527;DHT22;7350;51.208;4.238;2022-07-29T15:18:33;25.60;99.90
14527;DHT22;7350;51.208;4.238;2022-07-29T15:21:02;25.60;99.90
14527;DHT22;7350;51.208;4.238;2022-07-29T15:23:29;25.70;99.90
14527;DHT22;7350;51.208;4.238;2022-07-29T15:25:56;25.80;99.90
14527;DHT22;7350;51.208;4.238;2022-07-29T15:28:23;25.70;99.90
14527;DHT22;7350;51.208;4.238;2022-07-29T15:30:49;25.70;99.90
14527;DHT22;7350;51.208;4.238;2022-07-29T15:33:16;25.80;99.90
14527;DHT22;7350;51.208;4.238;2022-07-29T15:35:43;25.50;99.90
14527;DHT22;7350;51.208;4.238;2022-07-29T15:38:12;25.50;99.90
14527;DHT22;7350;51.208;4.238;2022-07-29T15:40:40;25.50;99.90
14527;DHT22;7350;51.208;4.238;2022-07-29T15:43:09;25.70;99.90
14527;DHT22;7350;51.208;4.238;2022-07-29T15:45:36;25.80;99.90
14527;DHT22;7350;51.208;4.238;2022-07-29T15:48:04;25.90;99.90
14527;DHT22;7350;51.208;4.238;2022-07-29T15:50:32;26.00;99.90
14527;DHT22;7350;51.208;4.238;2022-07-29T15:53:00;25.90;99.90
14527;DHT22;7350;51.208;4.238;2022-07-29T15:55:28;25.70;99.90
14527;DHT22;7350;51.208;4.238;2022-07-29T15:57:55;25.70;99.90
14527;DHT22;7350;51.208;4.238;2022-07-29T16:00:22;25.80;99.90
14527;DHT22;7350;51.208;4.238;2022-07-29T16:02:49;25.50;99.90
14527;DHT22;7350;51.208;4.238;2022-07-29T16:05:17;25.50;99.90
14527;DHT22;7350;51.208;4.238;2022-07-29T16:07:44;25.40;99.90
14527;DHT22;7350;51.208;4.238;2022-07-29T16:10:11;25.00;99.90